sensor_id;sensor_type;location;lat;lon;timestamp;pressure;altitude;pressure_sealevel;temperature;humidity
42859;BME280;28505;56.970;40.998;2024-02-23T00:00:45;100675.06;;;-5.87;100.00
42859;BME280;28505;56.970;40.998;2024-02-23T00:06:08;100673.34;;;-5.63;100.00
42859;BME280;28505;56.970;40.998;2024-02-23T00:11:31;100689.59;;;-5.60;100.00
42859;BME280;28505;56.970;40.998;2024-02-23T00:17:22;100682.25;;;-5.73;100.00
42859;BME280;28505;56.970;40.998;2024-02-23T00:22:45;100682.03;;;-5.63;100.00
42859;BME280;28505;56.970;40.998;2024-02-23T00:28:08;100682.16;;;-5.96;100.00
42859;BME280;28505;56.970;40.998;2024-02-23T00:33:30;100679.00;;;-5.83;100.00
42859;BME280;28505;56.970;40.998;2024-02-23T00:38:53;100694.69;;;-5.67;100.00
42859;BME280;28505;56.970;40.998;2024-02-23T00:44:15;100685.50;;;-5.62;100.00
42859;BME280;28505;56.970;40.998;2024-02-23T00:49:37;100682.91;;;-5.71;100.00
42859;BME280;28505;56.970;40.998;2024-02-23T00:55:11;100693.94;;;-5.83;100.00
42859;BME280;28505;56.970;40.998;2024-02-23T01:00:36;100695.72;;;-5.76;100.00
42859;BME280;28505;56.970;40.998;2024-02-23T01:05:58;100706.31;;;-5.53;100.00
42859;BME280;28505;56.970;40.998;2024-02-23T01:11:21;100706.69;;;-5.64;100.00
42859;BME280;28505;56.970;40.998;2024-02-23T01:16:44;100702.28;;;-5.72;100.00
42859;BME280;28505;56.970;40.998;2024-02-23T01:22:06;100704.25;;;-5.74;100.00
42859;BME280;28505;56.970;40.998;2024-02-23T01:27:42;100688.97;;;-5.70;100.00
42859;BME280;28505;56.970;40.998;2024-02-23T01:33:16;100689.78;;;-5.70;100.00
42859;BME280;28505;56.970;40.998;2024-02-23T01:38:38;100704.09;;;-5.72;100.00
42859;BME280;28505;56.970;40.998;2024-02-23T01:44:01;100687.81;;;-5.68;100.00
42859;BME280;28505;56.970;40.998;2024-02-23T01:49:26;100687.00;;;-5.68;100.00
42859;BME280;28505;56.970;40.998;2024-02-23T01:54:54;100682.03;;;-5.94;100.00
42859;BME280;28505;56.970;40.998;2024-02-23T02:00:18;100696.00;;;-5.62;100.00
42859;BME280;28505;56.970;40.998;2024-02-23T02:05:46;100674.38;;;-5.73;100.00
42859;BME280;28505;56.970;40.998;2024-02-23T02:11:09;100696.03;;;-5.71;100.00
42859;BME280;28505;56.970;40.998;2024-02-23T02:16:32;100704.44;;;-5.83;100.00
42859;BME280;28505;56.970;40.998;2024-02-23T02:22:19;100719.34;;;-5.76;100.00
42859;BME280;28505;56.970;40.998;2024-02-23T02:27:55;100706.88;;;-5.66;100.00
42859;BME280;28505;56.970;40.998;2024-02-23T02:33:18;100711.47;;;-5.68;100.00
42859;BME280;28505;56.970;40.998;2024-02-23T02:38:40;100700.97;;;-5.76;100.00
42859;BME280;28505;56.970;40.998;2024-02-23T02:44:03;100690.50;;;-5.92;100.00
42859;BME280;28505;56.970;40.998;2024-02-23T02:49:30;100714.38;;;-5.62;100.00
42859;BME280;28505;56.970;40.998;2024-02-23T03:01:20;100699.00;;;-5.74;100.00
42859;BME280;28505;56.970;40.998;2024-02-23T03:06:43;100717.72;;;-5.69;100.00
42859;BME280;28505;56.970;40.998;2024-02-23T03:12:05;100696.22;;;-5.72;100.00
42859;BME280;28505;56.970;40.998;2024-02-23T03:17:29;100716.06;;;-5.70;100.00
42859;BME280;28505;56.970;40.998;2024-02-23T03:22:51;100707.97;;;-5.60;100.00
42859;BME280;28505;56.970;40.998;2024-02-23T03:28:26;100717.38;;;-5.66;100.00
42859;BME280;28505;56.970;40.998;2024-02-23T03:33:49;100714.09;;;-5.76;100.00
42859;BME280;28505;56.970;40.998;2024-02-23T03:39:11;100713.78;;;-5.81;100.00
42859;BME280;28505;56.970;40.998;2024-02-23T03:44:45;100721.94;;;-5.59;100.00
42859;BME280;28505;56.970;40.998;2024-02-23T03:50:07;100723.44;;;-5.65;100.00
42859;BME280;28505;56.970;40.998;2024-02-23T03:55:30;100722.78;;;-5.67;100.00
42859;BME280;28505;56.970;40.998;2024-02-23T04:00:54;100738.38;;;-5.66;100.00
42859;BME280;28505;56.970;40.998;2024-02-23T04:06:19;100730.50;;;-5.74;100.00
42859;BME280;28505;56.970;40.998;2024-02-23T04:11:40;100734.75;;;-5.65;100.00
42859;BME280;28505;56.970;40.998;2024-02-23T04:17:03;100730.50;;;-5.74;100.00
42859;BME280;28505;56.970;40.998;2024-02-23T04:22:26;100731.19;;;-5.72;100.00
42859;BME280;28505;56.970;40.998;2024-02-23T04:27:49;100736.72;;;-5.58;100.00
42859;BME280;28505;56.970;40.998;2024-02-23T04:33:23;100751.50;;;-5.57;100.00
42859;BME280;28505;56.970;40.998;2024-02-23T04:38:46;100733.13;;;-5.74;100.00
42859;BME280;28505;56.970;40.998;2024-02-23T04:44:09;100736.09;;;-5.77;100.00
42859;BME280;28505;56.970;40.998;2024-02-23T04:49:34;100742.16;;;-5.76;100.00
42859;BME280;28505;56.970;40.998;2024-02-23T04:54:57;100751.84;;;-5.77;100.00
42859;BME280;28505;56.970;40.998;2024-02-23T05:00:20;100730.53;;;-5.82;100.00
42859;BME280;28505;56.970;40.998;2024-02-23T05:05:42;100737.31;;;-5.96;100.00
42859;BME280;28505;56.970;40.998;2024-02-23T05:11:04;100740.59;;;-5.94;100.00
42859;BME280;28505;56.970;40.998;2024-02-23T05:16:27;100724.78;;;-5.77;100.00
42859;BME280;28505;56.970;40.998;2024-02-23T05:21:49;100755.53;;;-5.94;100.00
42859;BME280;28505;56.970;40.998;2024-02-23T05:27:12;100761.03;;;-5.65;100.00
42859;BME280;28505;56.970;40.998;2024-02-23T05:32:34;100767.44;;;-5.67;100.00
42859;BME280;28505;56.970;40.998;2024-02-23T05:38:09;100757.06;;;-5.52;100.00
42859;BME280;28505;56.970;40.998;2024-02-23T05:43:31;100761.31;;;-5.51;100.00
42859;BME280;28505;56.970;40.998;2024-02-23T05:48:55;100777.44;;;-5.62;100.00
42859;BME280;28505;56.970;40.998;2024-02-23T05:54:23;100779.88;;;-5.53;100.00
42859;BME280;28505;56.970;40.998;2024-02-23T05:59:51;100777.75;;;-5.57;100.00
42859;BME280;28505;56.970;40.998;2024-02-23T06:05:13;100790.03;;;-5.50;100.00
42859;BME280;28505;56.970;40.998;2024-02-23T06:10:35;100776.75;;;-5.56;100.00
42859;BME280;28505;56.970;40.998;2024-02-23T06:16:00;100774.28;;;-5.50;100.00
42859;BME280;28505;56.970;40.998;2024-02-23T06:21:22;100771.66;;;-5.50;100.00
42859;BME280;28505;56.970;40.998;2024-02-23T06:26:44;100791.06;;;-5.59;100.00
42859;BME280;28505;56.970;40.998;2024-02-23T06:32:07;100785.97;;;-5.52;100.00
42859;BME280;28505;56.970;40.998;2024-02-23T06:37:30;100774.75;;;-5.46;100.00
42859;BME280;28505;56.970;40.998;2024-02-23T06:43:04;100778.56;;;-5.57;100.00
42859;BME280;28505;56.970;40.998;2024-02-23T06:48:26;100779.38;;;-5.56;100.00
42859;BME280;28505;56.970;40.998;2024-02-23T06:53:51;100792.53;;;-5.56;100.00
42859;BME280;28505;56.970;40.998;2024-02-23T06:59:13;100792.66;;;-5.50;100.00
42859;BME280;28505;56.970;40.998;2024-02-23T07:04:36;100781.56;;;-5.68;100.00
42859;BME280;28505;56.970;40.998;2024-02-23T07:09:59;100799.06;;;-5.44;100.00
42859;BME280;28505;56.970;40.998;2024-02-23T07:15:34;100806.63;;;-5.41;100.00
42859;BME280;28505;56.970;40.998;2024-02-23T07:21:02;100793.97;;;-5.37;100.00
42859;BME280;28505;56.970;40.998;2024-02-23T07:26:37;100805.28;;;-5.37;100.00
42859;BME280;28505;56.970;40.998;2024-02-23T07:31:59;100810.34;;;-5.27;100.00
42859;BME280;28505;56.970;40.998;2024-02-23T07:37:21;100807.09;;;-5.29;100.00
42859;BME280;28505;56.970;40.998;2024-02-23T07:42:43;100818.84;;;-5.09;100.00
42859;BME280;28505;56.970;40.998;2024-02-23T07:48:11;100810.53;;;-5.29;100.00
42859;BME280;28505;56.970;40.998;2024-02-23T07:53:46;100822.34;;;-5.16;100.00
42859;BME280;28505;56.970;40.998;2024-02-23T07:59:21;100816.09;;;-5.15;100.00
42859;BME280;28505;56.970;40.998;2024-02-23T08:04:43;100837.72;;;-5.05;100.00
42859;BME280;28505;56.970;40.998;2024-02-23T08:10:06;100853.78;;;-4.92;100.00
42859;BME280;28505;56.970;40.998;2024-02-23T08:15:28;100845.03;;;-4.76;100.00
42859;BME280;28505;56.970;40.998;2024-02-23T08:20:51;100848.06;;;-4.96;100.00
42859;BME280;28505;56.970;40.998;2024-02-23T08:26:14;100863.69;;;-5.10;100.00
42859;BME280;28505;56.970;40.998;2024-02-23T08:31:37;100853.66;;;-4.99;100.00
42859;BME280;28505;56.970;40.998;2024-02-23T08:37:02;100869.09;;;-4.96;100.00
42859;BME280;28505;56.970;40.998;2024-02-23T08:42:26;100863.53;;;-4.61;100.00
42859;BME280;28505;56.970;40.998;2024-02-23T08:47:48;100856.97;;;-4.65;100.00
42859;BME280;28505;56.970;40.998;2024-02-23T08:53:11;100843.31;;;-5.00;100.00
42859;BME280;28505;56.970;40.998;2024-02-23T08:58:33;100860.66;;;-4.83;100.00
42859;BME280;28505;56.970;40.998;2024-02-23T09:03:55;100854.72;;;-4.77;100.00
42859;BME280;28505;56.970;40.998;2024-02-23T09:09:18;100865.28;;;-4.85;100.00
42859;BME280;28505;56.970;40.998;2024-02-23T09:14:42;100849.88;;;-4.96;100.00
42859;BME280;28505;56.970;40.998;2024-02-23T09:20:17;100876.66;;;-4.53;100.00
42859;BME280;28505;56.970;40.998;2024-02-23T09:25:40;100886.41;;;-4.31;100.00
42859;BME280;28505;56.970;40.998;2024-02-23T09:31:13;100881.31;;;-4.63;100.00
42859;BME280;28505;56.970;40.998;2024-02-23T09:36:48;100877.19;;;-4.66;100.00
42859;BME280;28505;56.970;40.998;2024-02-23T09:42:10;100883.66;;;-4.37;100.00
42859;BME280;28505;56.970;40.998;2024-02-23T09:47:35;100876.38;;;-4.04;100.00
42859;BME280;28505;56.970;40.998;2024-02-23T09:52:58;100870.44;;;-4.60;100.00
42859;BME280;28505;56.970;40.998;2024-02-23T09:58:21;100874.31;;;-4.48;100.00
42859;BME280;28505;56.970;40.998;2024-02-23T10:03:45;100882.72;;;-4.53;100.00
42859;BME280;28505;56.970;40.998;2024-02-23T10:09:20;100894.69;;;-4.11;100.00
42859;BME280;28505;56.970;40.998;2024-02-23T10:14:56;100891.94;;;-4.17;100.00
42859;BME280;28505;56.970;40.998;2024-02-23T10:20:18;100883.88;;;-4.47;100.00
42859;BME280;28505;56.970;40.998;2024-02-23T10:25:41;100876.59;;;-4.45;100.00
42859;BME280;28505;56.970;40.998;2024-02-23T10:31:05;100883.69;;;-4.45;100.00
42859;BME280;28505;56.970;40.998;2024-02-23T10:36:56;100885.41;;;-4.30;100.00
42859;BME280;28505;56.970;40.998;2024-02-23T10:42:33;100872.69;;;-4.49;100.00
42859;BME280;28505;56.970;40.998;2024-02-23T10:47:57;100903.53;;;-4.04;100.00
42859;BME280;28505;56.970;40.998;2024-02-23T10:53:21;100875.53;;;-4.28;100.00
42859;BME280;28505;56.970;40.998;2024-02-23T10:58:59;100902.81;;;-4.20;100.00
42859;BME280;28505;56.970;40.998;2024-02-23T11:04:22;100905.03;;;-4.09;100.00
42859;BME280;28505;56.970;40.998;2024-02-23T11:10:00;100900.78;;;-3.64;100.00
42859;BME280;28505;56.970;40.998;2024-02-23T11:15:30;100900.84;;;-4.18;100.00
42859;BME280;28505;56.970;40.998;2024-02-23T11:21:04;100892.41;;;-4.14;100.00
42859;BME280;28505;56.970;40.998;2024-02-23T11:26:49;100909.56;;;-4.26;100.00
42859;BME280;28505;56.970;40.998;2024-02-23T11:32:15;100919.09;;;-3.94;100.00
42859;BME280;28505;56.970;40.998;2024-02-23T11:37:56;100912.00;;;-4.48;100.00
42859;BME280;28505;56.970;40.998;2024-02-23T11:43:22;100910.91;;;-3.99;100.00
42859;BME280;28505;56.970;40.998;2024-02-23T11:48:44;100914.97;;;-4.19;100.00
42859;BME280;28505;56.970;40.998;2024-02-23T11:54:21;100920.09;;;-4.26;100.00
42859;BME280;28505;56.970;40.998;2024-02-23T11:59:43;100913.50;;;-4.22;100.00
42859;BME280;28505;56.970;40.998;2024-02-23T12:05:05;100912.31;;;-4.11;100.00
42859;BME280;28505;56.970;40.998;2024-02-23T12:10:29;100921.53;;;-4.47;100.00
42859;BME280;28505;56.970;40.998;2024-02-23T12:15:54;100922.19;;;-4.13;100.00
42859;BME280;28505;56.970;40.998;2024-02-23T12:21:14;100920.28;;;-4.28;100.00
42859;BME280;28505;56.970;40.998;2024-02-23T12:26:36;100926.66;;;-4.61;100.00
42859;BME280;28505;56.970;40.998;2024-02-23T12:32:20;100936.84;;;-4.50;100.00
42859;BME280;28505;56.970;40.998;2024-02-23T12:37:43;100941.69;;;-4.31;100.00
42859;BME280;28505;56.970;40.998;2024-02-23T12:43:05;100929.50;;;-4.32;100.00
42859;BME280;28505;56.970;40.998;2024-02-23T12:48:41;100920.44;;;-4.29;100.00
42859;BME280;28505;56.970;40.998;2024-02-23T12:54:05;100922.72;;;-4.57;100.00
42859;BME280;28505;56.970;40.998;2024-02-23T12:59:26;100932.13;;;-4.32;100.00
42859;BME280;28505;56.970;40.998;2024-02-23T13:04:49;100936.13;;;-4.36;100.00
42859;BME280;28505;56.970;40.998;2024-02-23T13:10:11;100934.47;;;-4.37;100.00
42859;BME280;28505;56.970;40.998;2024-02-23T13:15:33;100929.88;;;-4.35;100.00
42859;BME280;28505;56.970;40.998;2024-02-23T13:21:20;100930.16;;;-4.30;100.00
42859;BME280;28505;56.970;40.998;2024-02-23T13:26:43;100941.44;;;-4.52;100.00
42859;BME280;28505;56.970;40.998;2024-02-23T13:32:09;100972.94;;;-4.28;100.00
42859;BME280;28505;56.970;40.998;2024-02-23T13:37:33;100958.13;;;-4.29;100.00
42859;BME280;28505;56.970;40.998;2024-02-23T13:42:56;100950.16;;;-4.52;100.00
42859;BME280;28505;56.970;40.998;2024-02-23T13:48:19;100958.19;;;-4.45;100.00
42859;BME280;28505;56.970;40.998;2024-02-23T13:53:44;100957.03;;;-4.42;100.00
42859;BME280;28505;56.970;40.998;2024-02-23T13:59:09;100952.81;;;-4.60;100.00
42859;BME280;28505;56.970;40.998;2024-02-23T14:04:39;100974.44;;;-4.25;100.00
42859;BME280;28505;56.970;40.998;2024-02-23T14:10:02;100957.56;;;-4.55;100.00
42859;BME280;28505;56.970;40.998;2024-02-23T14:15:25;100973.44;;;-4.32;100.00
42859;BME280;28505;56.970;40.998;2024-02-23T14:20:49;100975.31;;;-4.49;100.00
42859;BME280;28505;56.970;40.998;2024-02-23T14:26:11;100984.50;;;-4.45;100.00
42859;BME280;28505;56.970;40.998;2024-02-23T14:31:48;100972.19;;;-4.44;100.00
42859;BME280;28505;56.970;40.998;2024-02-23T14:37:22;100982.91;;;-4.54;100.00
42859;BME280;28505;56.970;40.998;2024-02-23T14:42:45;100993.91;;;-4.51;100.00
42859;BME280;28505;56.970;40.998;2024-02-23T14:48:08;100982.53;;;-4.43;100.00
42859;BME280;28505;56.970;40.998;2024-02-23T14:53:43;100983.88;;;-4.55;100.00
42859;BME280;28505;56.970;40.998;2024-02-23T14:59:29;100988.34;;;-4.56;100.00
42859;BME280;28505;56.970;40.998;2024-02-23T15:04:52;101017.56;;;-4.42;100.00
42859;BME280;28505;56.970;40.998;2024-02-23T15:10:15;101012.78;;;-4.39;100.00
42859;BME280;28505;56.970;40.998;2024-02-23T15:15:38;101001.00;;;-4.51;100.00
42859;BME280;28505;56.970;40.998;2024-02-23T15:21:02;101009.53;;;-4.49;100.00
42859;BME280;28505;56.970;40.998;2024-02-23T15:26:25;100999.19;;;-4.59;100.00
42859;BME280;28505;56.970;40.998;2024-02-23T15:31:48;101007.41;;;-4.54;100.00
42859;BME280;28505;56.970;40.998;2024-02-23T15:37:35;100998.22;;;-4.58;100.00
42859;BME280;28505;56.970;40.998;2024-02-23T15:43:10;101004.94;;;-4.55;100.00
42859;BME280;28505;56.970;40.998;2024-02-23T15:48:32;101013.00;;;-4.57;100.00
42859;BME280;28505;56.970;40.998;2024-02-23T15:54:13;101009.56;;;-4.57;100.00
42859;BME280;28505;56.970;40.998;2024-02-23T15:59:35;101028.63;;;-4.55;100.00
42859;BME280;28505;56.970;40.998;2024-02-23T16:04:58;101028.47;;;-4.54;100.00
42859;BME280;28505;56.970;40.998;2024-02-23T16:10:29;101025.34;;;-4.57;100.00
42859;BME280;28505;56.970;40.998;2024-02-23T16:16:00;101024.69;;;-4.59;100.00
42859;BME280;28505;56.970;40.998;2024-02-23T16:21:32;101029.63;;;-4.56;100.00
42859;BME280;28505;56.970;40.998;2024-02-23T16:27:13;101035.88;;;-4.57;100.00
42859;BME280;28505;56.970;40.998;2024-02-23T16:32:36;101025.69;;;-4.60;100.00
42859;BME280;28505;56.970;40.998;2024-02-23T16:37:59;101047.84;;;-4.55;100.00
42859;BME280;28505;56.970;40.998;2024-02-23T16:43:22;101036.22;;;-4.60;100.00
42859;BME280;28505;56.970;40.998;2024-02-23T16:48:59;101053.63;;;-4.51;100.00
42859;BME280;28505;56.970;40.998;2024-02-23T16:54:21;101056.09;;;-4.50;100.00
42859;BME280;28505;56.970;40.998;2024-02-23T16:59:44;101039.81;;;-4.61;100.00
42859;BME280;28505;56.970;40.998;2024-02-23T17:05:06;101058.91;;;-4.51;100.00
42859;BME280;28505;56.970;40.998;2024-02-23T17:10:30;101061.00;;;-4.55;100.00
42859;BME280;28505;56.970;40.998;2024-02-23T17:16:07;101062.84;;;-4.55;100.00
42859;BME280;28505;56.970;40.998;2024-02-23T17:21:42;101065.78;;;-4.50;100.00
42859;BME280;28505;56.970;40.998;2024-02-23T17:27:05;101067.94;;;-4.54;100.00
42859;BME280;28505;56.970;40.998;2024-02-23T17:32:28;101066.13;;;-4.53;100.00
42859;BME280;28505;56.970;40.998;2024-02-23T17:37:51;101052.81;;;-4.60;100.00
42859;BME280;28505;56.970;40.998;2024-02-23T17:43:16;101044.09;;;-4.60;100.00
42859;BME280;28505;56.970;40.998;2024-02-23T17:48:52;101061.00;;;-4.47;100.00
42859;BME280;28505;56.970;40.998;2024-02-23T17:54:27;101062.16;;;-4.49;100.00
42859;BME280;28505;56.970;40.998;2024-02-23T18:00:01;101064.97;;;-4.51;100.00
42859;BME280;28505;56.970;40.998;2024-02-23T18:05:25;101055.91;;;-4.48;100.00
42859;BME280;28505;56.970;40.998;2024-02-23T18:10:52;101060.53;;;-4.50;100.00
42859;BME280;28505;56.970;40.998;2024-02-23T18:22:11;101039.19;;;-4.63;100.00
42859;BME280;28505;56.970;40.998;2024-02-23T18:27:44;101069.91;;;-4.48;100.00
42859;BME280;28505;56.970;40.998;2024-02-23T18:33:07;101073.34;;;-4.47;100.00
42859;BME280;28505;56.970;40.998;2024-02-23T18:38:31;101074.69;;;-4.51;100.00
42859;BME280;28505;56.970;40.998;2024-02-23T18:44:00;101065.31;;;-4.54;100.00
42859;BME280;28505;56.970;40.998;2024-02-23T18:49:25;101066.47;;;-4.56;100.00
42859;BME280;28505;56.970;40.998;2024-02-23T18:54:58;101070.72;;;-4.47;100.00
42859;BME280;28505;56.970;40.998;2024-02-23T19:00:35;101052.31;;;-4.55;100.00
42859;BME280;28505;56.970;40.998;2024-02-23T19:06:13;101070.41;;;-4.44;100.00
42859;BME280;28505;56.970;40.998;2024-02-23T19:11:39;101049.69;;;-4.47;100.00
42859;BME280;28505;56.970;40.998;2024-02-23T19:17:02;101064.78;;;-4.41;100.00
42859;BME280;28505;56.970;40.998;2024-02-23T19:22:27;101052.97;;;-4.53;100.00
42859;BME280;28505;56.970;40.998;2024-02-23T19:27:50;101041.16;;;-4.57;100.00
42859;BME280;28505;56.970;40.998;2024-02-23T19:33:14;101067.59;;;-4.42;100.00
42859;BME280;28505;56.970;40.998;2024-02-23T19:38:37;101060.69;;;-4.43;100.00
42859;BME280;28505;56.970;40.998;2024-02-23T19:44:01;101067.59;;;-4.42;100.00
42859;BME280;28505;56.970;40.998;2024-02-23T19:49:27;101071.03;;;-4.42;100.00
42859;BME280;28505;56.970;40.998;2024-02-23T19:54:49;101072.34;;;-4.46;100.00
42859;BME280;28505;56.970;40.998;2024-02-23T20:00:12;101081.56;;;-4.42;100.00
42859;BME280;28505;56.970;40.998;2024-02-23T20:05:35;101076.81;;;-4.47;100.00
42859;BME280;28505;56.970;40.998;2024-02-23T20:10:57;101087.16;;;-4.37;100.00
42859;BME280;28505;56.970;40.998;2024-02-23T20:22:10;101062.00;;;-4.56;100.00
42859;BME280;28505;56.970;40.998;2024-02-23T20:27:36;101060.53;;;-4.50;100.00
42859;BME280;28505;56.970;40.998;2024-02-23T20:33:13;101072.69;;;-4.49;100.00
42859;BME280;28505;56.970;40.998;2024-02-23T20:38:35;101080.25;;;-4.38;100.00
42859;BME280;28505;56.970;40.998;2024-02-23T20:44:03;101063.81;;;-4.48;100.00
42859;BME280;28505;56.970;40.998;2024-02-23T20:49:26;101094.06;;;-4.36;100.00
42859;BME280;28505;56.970;40.998;2024-02-23T20:54:49;101087.50;;;-4.40;100.00
42859;BME280;28505;56.970;40.998;2024-02-23T21:00:12;101093.25;;;-4.36;100.00
42859;BME280;28505;56.970;40.998;2024-02-23T21:05:47;101095.38;;;-4.48;100.00
42859;BME280;28505;56.970;40.998;2024-02-23T21:11:10;101102.28;;;-4.39;100.00
42859;BME280;28505;56.970;40.998;2024-02-23T21:16:34;101103.28;;;-4.40;100.00
42859;BME280;28505;56.970;40.998;2024-02-23T21:21:56;101117.41;;;-4.33;100.00
42859;BME280;28505;56.970;40.998;2024-02-23T21:27:19;101109.50;;;-4.33;100.00
42859;BME280;28505;56.970;40.998;2024-02-23T21:32:42;101126.63;;;-4.29;100.00
42859;BME280;28505;56.970;40.998;2024-02-23T21:38:04;101128.44;;;-4.29;100.00
42859;BME280;28505;56.970;40.998;2024-02-23T21:43:29;101140.09;;;-4.32;100.00
42859;BME280;28505;56.970;40.998;2024-02-23T21:48:52;101136.19;;;-4.28;100.00
42859;BME280;28505;56.970;40.998;2024-02-23T21:54:26;101130.72;;;-4.26;100.00
42859;BME280;28505;56.970;40.998;2024-02-23T21:59:48;101114.16;;;-4.35;100.00
42859;BME280;28505;56.970;40.998;2024-02-23T22:05:14;101138.97;;;-4.29;100.00
42859;BME280;28505;56.970;40.998;2024-02-23T22:10:35;101131.41;;;-4.32;100.00
42859;BME280;28505;56.970;40.998;2024-02-23T22:16:12;101131.72;;;-4.27;100.00
42859;BME280;28505;56.970;40.998;2024-02-23T22:21:36;101131.53;;;-4.26;100.00
42859;BME280;28505;56.970;40.998;2024-02-23T22:26:58;101137.47;;;-4.24;100.00
42859;BME280;28505;56.970;40.998;2024-02-23T22:32:35;101125.31;;;-4.25;100.00
42859;BME280;28505;56.970;40.998;2024-02-23T22:38:23;101114.59;;;-4.23;100.00
42859;BME280;28505;56.970;40.998;2024-02-23T22:44:06;101132.03;;;-4.22;100.00
42859;BME280;28505;56.970;40.998;2024-02-23T22:49:43;101121.34;;;-4.29;100.00
42859;BME280;28505;56.970;40.998;2024-02-23T22:55:06;101119.03;;;-4.24;100.00
42859;BME280;28505;56.970;40.998;2024-02-23T23:00:37;101141.41;;;-4.19;100.00
42859;BME280;28505;56.970;40.998;2024-02-23T23:05:59;101139.25;;;-4.16;100.00
42859;BME280;28505;56.970;40.998;2024-02-23T23:11:22;101135.34;;;-4.20;100.00
42859;BME280;28505;56.970;40.998;2024-02-23T23:16:56;101125.94;;;-4.22;100.00
42859;BME280;28505;56.970;40.998;2024-02-23T23:22:41;101130.56;;;-4.25;100.00
42859;BME280;28505;56.970;40.998;2024-02-23T23:28:04;101121.34;;;-4.29;100.00
42859;BME280;28505;56.970;40.998;2024-02-23T23:33:36;101122.84;;;-4.18;100.00
42859;BME280;28505;56.970;40.998;2024-02-23T23:39:23;101111.63;;;-4.20;100.00
42859;BME280;28505;56.970;40.998;2024-02-23T23:44:45;101135.84;;;-4.25;100.00
42859;BME280;28505;56.970;40.998;2024-02-23T23:50:31;101125.28;;;-4.16;100.00
42859;BME280;28505;56.970;40.998;2024-02-23T23:56:12;101145.69;;;-4.10;100.00
